sensor_id;sensor_type;location;lat;lon;timestamp;temperature;humidity
59505;DHT22;45321;53.200;5.814;2023-02-18T00:01:21;8.50;81.50
59505;DHT22;45321;53.200;5.814;2023-02-18T00:03:48;8.60;81.60
59505;DHT22;45321;53.200;5.814;2023-02-18T00:06:21;8.60;81.70
59505;DHT22;45321;53.200;5.814;2023-02-18T00:08:48;8.60;82.00
59505;DHT22;45321;53.200;5.814;2023-02-18T00:11:15;8.60;82.20
59505;DHT22;45321;53.200;5.814;2023-02-18T00:13:41;8.50;82.40
59505;DHT22;45321;53.200;5.814;2023-02-18T00:16:12;8.50;82.50
59505;DHT22;45321;53.200;5.814;2023-02-18T00:18:38;8.50;82.60
59505;DHT22;45321;53.200;5.814;2023-02-18T00:21:05;8.50;83.00
59505;DHT22;45321;53.200;5.814;2023-02-18T00:23:32;8.50;83.40
59505;DHT22;45321;53.200;5.814;2023-02-18T00:26:10;8.50;83.10
59505;DHT22;45321;53.200;5.814;2023-02-18T00:28:36;8.50;83.10
59505;DHT22;45321;53.200;5.814;2023-02-18T00:31:06;8.50;83.20
59505;DHT22;45321;53.200;5.814;2023-02-18T00:33:32;8.50;83.40
59505;DHT22;45321;53.200;5.814;2023-02-18T00:36:06;8.50;83.30
59505;DHT22;45321;53.200;5.814;2023-02-18T00:38:32;8.50;83.20
59505;DHT22;45321;53.200;5.814;2023-02-18T00:40:59;8.40;83.50
59505;DHT22;45321;53.200;5.814;2023-02-18T00:43:25;8.50;83.50
59505;DHT22;45321;53.200;5.814;2023-02-18T00:45:50;8.50;83.50
59505;DHT22;45321;53.200;5.814;2023-02-18T00:48:16;8.50;83.70
59505;DHT22;45321;53.200;5.814;2023-02-18T00:50:51;8.50;83.80
59505;DHT22;45321;53.200;5.814;2023-02-18T00:53:17;8.50;83.70
59505;DHT22;45321;53.200;5.814;2023-02-18T00:55:44;8.50;83.80
59505;DHT22;45321;53.200;5.814;2023-02-18T00:58:12;8.50;84.00
59505;DHT22;45321;53.200;5.814;2023-02-18T01:00:38;8.60;83.90
59505;DHT22;45321;53.200;5.814;2023-02-18T01:03:05;8.60;83.90
59505;DHT22;45321;53.200;5.814;2023-02-18T01:05:35;8.60;83.90
59505;DHT22;45321;53.200;5.814;2023-02-18T01:08:01;8.60;83.90
59505;DHT22;45321;53.200;5.814;2023-02-18T01:10:27;8.60;84.00
59505;DHT22;45321;53.200;5.814;2023-02-18T01:12:53;8.60;84.10
59505;DHT22;45321;53.200;5.814;2023-02-18T01:15:20;8.60;84.00
59505;DHT22;45321;53.200;5.814;2023-02-18T01:17:46;8.70;84.20
59505;DHT22;45321;53.200;5.814;2023-02-18T01:20:14;8.70;84.20
59505;DHT22;45321;53.200;5.814;2023-02-18T01:22:40;8.70;84.20
59505;DHT22;45321;53.200;5.814;2023-02-18T01:25:06;8.70;84.30
59505;DHT22;45321;53.200;5.814;2023-02-18T01:27:32;8.70;84.30
59505;DHT22;45321;53.200;5.814;2023-02-18T01:29:58;8.80;84.20
59505;DHT22;45321;53.200;5.814;2023-02-18T01:32:24;8.70;84.30
59505;DHT22;45321;53.200;5.814;2023-02-18T01:34:50;8.80;84.30
59505;DHT22;45321;53.200;5.814;2023-02-18T01:37:15;8.80;84.30
59505;DHT22;45321;53.200;5.814;2023-02-18T01:39:41;8.80;84.30
59505;DHT22;45321;53.200;5.814;2023-02-18T01:42:20;8.80;84.50
59505;DHT22;45321;53.200;5.814;2023-02-18T01:44:48;8.80;84.40
59505;DHT22;45321;53.200;5.814;2023-02-18T01:47:15;8.80;84.50
59505;DHT22;45321;53.200;5.814;2023-02-18T01:49:42;8.80;84.50
59505;DHT22;45321;53.200;5.814;2023-02-18T01:52:23;8.80;84.40
59505;DHT22;45321;53.200;5.814;2023-02-18T01:54:55;8.90;84.30
59505;DHT22;45321;53.200;5.814;2023-02-18T01:57:28;8.80;84.40
59505;DHT22;45321;53.200;5.814;2023-02-18T01:59:56;8.90;84.40
59505;DHT22;45321;53.200;5.814;2023-02-18T02:02:25;8.90;84.40
59505;DHT22;45321;53.200;5.814;2023-02-18T02:04:52;8.90;84.40
59505;DHT22;45321;53.200;5.814;2023-02-18T02:07:20;8.80;84.40
59505;DHT22;45321;53.200;5.814;2023-02-18T02:09:48;8.90;84.40
59505;DHT22;45321;53.200;5.814;2023-02-18T02:16:04;8.90;84.50
59505;DHT22;45321;53.200;5.814;2023-02-18T02:18:12;8.80;84.50
59505;DHT22;45321;53.200;5.814;2023-02-18T02:24:21;8.90;84.50
59505;DHT22;45321;53.200;5.814;2023-02-18T02:34:47;8.90;84.50
59505;DHT22;45321;53.200;5.814;2023-02-18T02:37:17;9.00;84.60
59505;DHT22;45321;53.200;5.814;2023-02-18T02:45:43;8.90;84.80
59505;DHT22;45321;53.200;5.814;2023-02-18T02:48:21;8.90;84.80
59505;DHT22;45321;53.200;5.814;2023-02-18T02:51:02;8.90;85.00
59505;DHT22;45321;53.200;5.814;2023-02-18T02:53:32;8.90;85.10
59505;DHT22;45321;53.200;5.814;2023-02-18T02:55:58;8.90;85.00
59505;DHT22;45321;53.200;5.814;2023-02-18T02:58:24;8.90;85.20
59505;DHT22;45321;53.200;5.814;2023-02-18T03:17:24;8.80;85.50
59505;DHT22;45321;53.200;5.814;2023-02-18T03:20:22;8.80;85.50
59505;DHT22;45321;53.200;5.814;2023-02-18T03:22:50;8.90;85.50
59505;DHT22;45321;53.200;5.814;2023-02-18T03:25:18;8.80;85.50
59505;DHT22;45321;53.200;5.814;2023-02-18T03:27:52;8.90;85.40
59505;DHT22;45321;53.200;5.814;2023-02-18T03:30:37;8.90;85.40
59505;DHT22;45321;53.200;5.814;2023-02-18T03:33:06;8.90;85.50
59505;DHT22;45321;53.200;5.814;2023-02-18T03:35:36;8.90;85.40
59505;DHT22;45321;53.200;5.814;2023-02-18T03:38:14;8.90;85.40
59505;DHT22;45321;53.200;5.814;2023-02-18T03:40:47;9.00;85.50
59505;DHT22;45321;53.200;5.814;2023-02-18T03:43:16;9.00;85.50
59505;DHT22;45321;53.200;5.814;2023-02-18T03:45:42;9.00;85.50
59505;DHT22;45321;53.200;5.814;2023-02-18T03:48:08;9.00;85.50
59505;DHT22;45321;53.200;5.814;2023-02-18T03:50:34;9.10;85.60
59505;DHT22;45321;53.200;5.814;2023-02-18T03:53:00;9.10;85.60
59505;DHT22;45321;53.200;5.814;2023-02-18T03:55:25;9.10;85.70
59505;DHT22;45321;53.200;5.814;2023-02-18T03:57:51;9.10;85.70
59505;DHT22;45321;53.200;5.814;2023-02-18T04:00:17;9.10;85.80
59505;DHT22;45321;53.200;5.814;2023-02-18T04:02:43;9.20;85.80
59505;DHT22;45321;53.200;5.814;2023-02-18T04:05:09;9.10;85.90
59505;DHT22;45321;53.200;5.814;2023-02-18T04:07:35;9.20;86.00
59505;DHT22;45321;53.200;5.814;2023-02-18T04:10:01;9.20;86.30
59505;DHT22;45321;53.200;5.814;2023-02-18T04:12:27;9.20;86.30
59505;DHT22;45321;53.200;5.814;2023-02-18T04:14:53;9.20;86.60
59505;DHT22;45321;53.200;5.814;2023-02-18T04:17:19;9.20;87.00
59505;DHT22;45321;53.200;5.814;2023-02-18T04:19:44;9.20;87.10
59505;DHT22;45321;53.200;5.814;2023-02-18T04:22:10;9.20;87.40
59505;DHT22;45321;53.200;5.814;2023-02-18T04:24:36;9.20;87.80
59505;DHT22;45321;53.200;5.814;2023-02-18T04:27:02;9.20;88.20
59505;DHT22;45321;53.200;5.814;2023-02-18T04:29:27;9.20;88.10
59505;DHT22;45321;53.200;5.814;2023-02-18T04:31:53;9.10;88.00
59505;DHT22;45321;53.200;5.814;2023-02-18T04:34:19;9.10;88.50
59505;DHT22;45321;53.200;5.814;2023-02-18T04:36:45;9.10;88.60
59505;DHT22;45321;53.200;5.814;2023-02-18T04:39:10;9.10;88.90
59505;DHT22;45321;53.200;5.814;2023-02-18T04:41:36;9.10;88.80
59505;DHT22;45321;53.200;5.814;2023-02-18T04:44:02;9.00;88.90
59505;DHT22;45321;53.200;5.814;2023-02-18T04:46:28;9.10;88.90
59505;DHT22;45321;53.200;5.814;2023-02-18T04:48:54;9.10;89.10
59505;DHT22;45321;53.200;5.814;2023-02-18T04:51:20;9.10;89.50
59505;DHT22;45321;53.200;5.814;2023-02-18T04:53:46;9.00;89.40
59505;DHT22;45321;53.200;5.814;2023-02-18T04:56:11;9.10;90.10
59505;DHT22;45321;53.200;5.814;2023-02-18T04:58:37;9.00;90.00
59505;DHT22;45321;53.200;5.814;2023-02-18T05:01:03;9.00;90.00
59505;DHT22;45321;53.200;5.814;2023-02-18T05:03:30;9.00;90.00
59505;DHT22;45321;53.200;5.814;2023-02-18T05:05:56;9.00;90.30
59505;DHT22;45321;53.200;5.814;2023-02-18T05:08:22;9.10;90.30
59505;DHT22;45321;53.200;5.814;2023-02-18T05:10:48;9.00;90.60
59505;DHT22;45321;53.200;5.814;2023-02-18T05:13:14;9.00;91.00
59505;DHT22;45321;53.200;5.814;2023-02-18T05:15:40;9.00;90.70
59505;DHT22;45321;53.200;5.814;2023-02-18T05:18:06;9.00;90.70
59505;DHT22;45321;53.200;5.814;2023-02-18T05:20:32;9.00;91.00
59505;DHT22;45321;53.200;5.814;2023-02-18T05:22:58;9.00;91.20
59505;DHT22;45321;53.200;5.814;2023-02-18T05:25:24;9.00;91.20
59505;DHT22;45321;53.200;5.814;2023-02-18T05:27:49;9.00;91.20
59505;DHT22;45321;53.200;5.814;2023-02-18T05:30:15;8.90;91.20
59505;DHT22;45321;53.200;5.814;2023-02-18T05:32:41;9.00;91.60
59505;DHT22;45321;53.200;5.814;2023-02-18T05:35:09;8.90;91.60
59505;DHT22;45321;53.200;5.814;2023-02-18T05:37:35;9.00;92.00
59505;DHT22;45321;53.200;5.814;2023-02-18T05:40:00;9.00;92.30
59505;DHT22;45321;53.200;5.814;2023-02-18T05:42:26;9.10;92.40
59505;DHT22;45321;53.200;5.814;2023-02-18T05:44:52;9.10;92.70
59505;DHT22;45321;53.200;5.814;2023-02-18T05:47:18;9.10;92.70
59505;DHT22;45321;53.200;5.814;2023-02-18T05:49:43;9.20;92.70
59505;DHT22;45321;53.200;5.814;2023-02-18T05:52:10;9.20;92.90
59505;DHT22;45321;53.200;5.814;2023-02-18T05:54:36;9.20;93.10
59505;DHT22;45321;53.200;5.814;2023-02-18T05:57:03;9.30;93.30
59505;DHT22;45321;53.200;5.814;2023-02-18T05:59:29;9.30;93.50
59505;DHT22;45321;53.200;5.814;2023-02-18T06:01:55;9.40;93.70
59505;DHT22;45321;53.200;5.814;2023-02-18T06:04:20;9.50;93.80
59505;DHT22;45321;53.200;5.814;2023-02-18T06:06:46;9.50;94.00
59505;DHT22;45321;53.200;5.814;2023-02-18T06:09:12;9.60;94.10
59505;DHT22;45321;53.200;5.814;2023-02-18T06:11:38;9.60;94.10
59505;DHT22;45321;53.200;5.814;2023-02-18T06:14:04;9.60;94.10
59505;DHT22;45321;53.200;5.814;2023-02-18T06:16:30;9.70;94.30
59505;DHT22;45321;53.200;5.814;2023-02-18T06:18:56;9.70;94.10
59505;DHT22;45321;53.200;5.814;2023-02-18T06:21:22;9.60;94.10
59505;DHT22;45321;53.200;5.814;2023-02-18T06:23:48;9.70;94.30
59505;DHT22;45321;53.200;5.814;2023-02-18T06:26:13;9.70;94.30
59505;DHT22;45321;53.200;5.814;2023-02-18T06:28:39;9.70;94.30
59505;DHT22;45321;53.200;5.814;2023-02-18T06:31:05;9.70;94.30
59505;DHT22;45321;53.200;5.814;2023-02-18T06:33:31;9.70;94.40
59505;DHT22;45321;53.200;5.814;2023-02-18T06:36:02;9.70;94.30
59505;DHT22;45321;53.200;5.814;2023-02-18T06:38:31;9.70;94.20
59505;DHT22;45321;53.200;5.814;2023-02-18T06:40:57;9.70;94.40
59505;DHT22;45321;53.200;5.814;2023-02-18T06:43:23;9.80;94.40
59505;DHT22;45321;53.200;5.814;2023-02-18T06:45:49;9.70;94.40
59505;DHT22;45321;53.200;5.814;2023-02-18T06:48:14;9.70;94.40
59505;DHT22;45321;53.200;5.814;2023-02-18T06:50:41;9.70;94.40
59505;DHT22;45321;53.200;5.814;2023-02-18T06:53:07;9.70;94.50
59505;DHT22;45321;53.200;5.814;2023-02-18T06:55:33;9.70;94.40
59505;DHT22;45321;53.200;5.814;2023-02-18T06:57:59;9.70;94.30
59505;DHT22;45321;53.200;5.814;2023-02-18T07:00:24;9.70;94.30
59505;DHT22;45321;53.200;5.814;2023-02-18T07:02:50;9.70;94.40
59505;DHT22;45321;53.200;5.814;2023-02-18T07:05:16;9.70;94.40
59505;DHT22;45321;53.200;5.814;2023-02-18T07:07:42;9.70;94.40
59505;DHT22;45321;53.200;5.814;2023-02-18T07:10:08;9.70;94.40
59505;DHT22;45321;53.200;5.814;2023-02-18T07:12:34;9.70;94.30
59505;DHT22;45321;53.200;5.814;2023-02-18T07:15:00;9.70;94.30
59505;DHT22;45321;53.200;5.814;2023-02-18T07:17:25;9.70;94.30
59505;DHT22;45321;53.200;5.814;2023-02-18T07:19:52;9.70;94.40
59505;DHT22;45321;53.200;5.814;2023-02-18T07:22:17;9.70;94.30
59505;DHT22;45321;53.200;5.814;2023-02-18T07:24:43;9.70;94.20
59505;DHT22;45321;53.200;5.814;2023-02-18T07:27:09;9.70;94.20
59505;DHT22;45321;53.200;5.814;2023-02-18T07:29:34;9.70;94.20
59505;DHT22;45321;53.200;5.814;2023-02-18T07:32:00;9.70;94.10
59505;DHT22;45321;53.200;5.814;2023-02-18T07:34:26;9.70;94.10
59505;DHT22;45321;53.200;5.814;2023-02-18T07:36:52;9.70;94.10
59505;DHT22;45321;53.200;5.814;2023-02-18T07:39:18;9.70;94.10
59505;DHT22;45321;53.200;5.814;2023-02-18T07:41:46;9.70;94.00
59505;DHT22;45321;53.200;5.814;2023-02-18T07:44:13;9.70;94.00
59505;DHT22;45321;53.200;5.814;2023-02-18T07:46:41;9.70;93.90
59505;DHT22;45321;53.200;5.814;2023-02-18T07:49:07;9.70;93.90
59505;DHT22;45321;53.200;5.814;2023-02-18T07:51:33;9.70;93.80
59505;DHT22;45321;53.200;5.814;2023-02-18T07:53:59;9.70;93.60
59505;DHT22;45321;53.200;5.814;2023-02-18T07:56:25;9.70;93.50
59505;DHT22;45321;53.200;5.814;2023-02-18T07:58:51;9.70;93.40
59505;DHT22;45321;53.200;5.814;2023-02-18T08:01:16;9.70;93.40
59505;DHT22;45321;53.200;5.814;2023-02-18T08:03:44;9.70;93.20
59505;DHT22;45321;53.200;5.814;2023-02-18T08:06:20;9.60;93.20
59505;DHT22;45321;53.200;5.814;2023-02-18T08:08:47;9.60;93.10
59505;DHT22;45321;53.200;5.814;2023-02-18T08:11:12;9.60;93.10
59505;DHT22;45321;53.200;5.814;2023-02-18T08:13:38;9.60;93.20
59505;DHT22;45321;53.200;5.814;2023-02-18T08:16:04;9.60;93.10
59505;DHT22;45321;53.200;5.814;2023-02-18T08:18:30;9.60;93.00
59505;DHT22;45321;53.200;5.814;2023-02-18T08:20:57;9.60;93.00
59505;DHT22;45321;53.200;5.814;2023-02-18T08:23:23;9.60;93.10
59505;DHT22;45321;53.200;5.814;2023-02-18T08:26:00;9.60;93.20
59505;DHT22;45321;53.200;5.814;2023-02-18T08:28:26;9.50;93.30
59505;DHT22;45321;53.200;5.814;2023-02-18T08:30:53;9.50;93.40
59505;DHT22;45321;53.200;5.814;2023-02-18T08:33:19;9.50;93.40
59505;DHT22;45321;53.200;5.814;2023-02-18T08:35:46;9.50;93.60
59505;DHT22;45321;53.200;5.814;2023-02-18T08:38:13;9.40;93.60
59505;DHT22;45321;53.200;5.814;2023-02-18T08:40:39;9.40;93.70
59505;DHT22;45321;53.200;5.814;2023-02-18T08:43:05;9.40;93.70
59505;DHT22;45321;53.200;5.814;2023-02-18T08:45:31;9.40;93.70
59505;DHT22;45321;53.200;5.814;2023-02-18T08:47:57;9.50;93.60
59505;DHT22;45321;53.200;5.814;2023-02-18T08:50:26;9.40;93.60
59505;DHT22;45321;53.200;5.814;2023-02-18T08:52:52;9.50;93.40
59505;DHT22;45321;53.200;5.814;2023-02-18T08:55:18;9.50;93.30
59505;DHT22;45321;53.200;5.814;2023-02-18T08:57:47;9.60;93.30
59505;DHT22;45321;53.200;5.814;2023-02-18T09:00:15;9.50;93.30
59505;DHT22;45321;53.200;5.814;2023-02-18T09:02:41;9.50;93.30
59505;DHT22;45321;53.200;5.814;2023-02-18T09:05:07;9.50;93.20
59505;DHT22;45321;53.200;5.814;2023-02-18T09:07:34;9.60;93.30
59505;DHT22;45321;53.200;5.814;2023-02-18T09:10:00;9.60;93.30
59505;DHT22;45321;53.200;5.814;2023-02-18T09:12:27;9.50;93.40
59505;DHT22;45321;53.200;5.814;2023-02-18T09:14:53;9.60;93.50
59505;DHT22;45321;53.200;5.814;2023-02-18T09:17:19;9.60;93.50
59505;DHT22;45321;53.200;5.814;2023-02-18T09:19:45;9.50;93.50
59505;DHT22;45321;53.200;5.814;2023-02-18T09:22:11;9.60;93.60
59505;DHT22;45321;53.200;5.814;2023-02-18T09:24:38;9.60;93.60
59505;DHT22;45321;53.200;5.814;2023-02-18T09:27:04;9.50;93.70
59505;DHT22;45321;53.200;5.814;2023-02-18T09:29:31;9.50;93.70
59505;DHT22;45321;53.200;5.814;2023-02-18T09:32:01;9.50;93.70
59505;DHT22;45321;53.200;5.814;2023-02-18T09:34:27;9.50;93.70
59505;DHT22;45321;53.200;5.814;2023-02-18T09:36:53;9.60;93.60
59505;DHT22;45321;53.200;5.814;2023-02-18T09:39:19;9.60;93.40
59505;DHT22;45321;53.200;5.814;2023-02-18T09:41:47;9.60;93.30
59505;DHT22;45321;53.200;5.814;2023-02-18T09:46:50;9.70;93.10
59505;DHT22;45321;53.200;5.814;2023-02-18T09:49:21;9.80;93.00
59505;DHT22;45321;53.200;5.814;2023-02-18T09:51:47;9.80;92.80
59505;DHT22;45321;53.200;5.814;2023-02-18T09:54:16;9.80;92.60
59505;DHT22;45321;53.200;5.814;2023-02-18T09:56:43;9.90;92.50
59505;DHT22;45321;53.200;5.814;2023-02-18T09:59:19;9.90;92.50
59505;DHT22;45321;53.200;5.814;2023-02-18T10:01:47;9.90;92.20
59505;DHT22;45321;53.200;5.814;2023-02-18T10:04:20;10.00;92.20
59505;DHT22;45321;53.200;5.814;2023-02-18T10:06:50;10.10;92.20
59505;DHT22;45321;53.200;5.814;2023-02-18T10:09:21;10.20;92.00
59505;DHT22;45321;53.200;5.814;2023-02-18T10:12:09;10.30;91.80
59505;DHT22;45321;53.200;5.814;2023-02-18T10:14:36;10.30;91.40
59505;DHT22;45321;53.200;5.814;2023-02-18T10:17:03;10.40;91.30
59505;DHT22;45321;53.200;5.814;2023-02-18T10:19:35;10.40;91.10
59505;DHT22;45321;53.200;5.814;2023-02-18T10:22:04;10.50;90.90
59505;DHT22;45321;53.200;5.814;2023-02-18T10:24:40;10.50;91.10
59505;DHT22;45321;53.200;5.814;2023-02-18T10:27:20;10.60;90.90
59505;DHT22;45321;53.200;5.814;2023-02-18T10:29:49;10.70;90.60
59505;DHT22;45321;53.200;5.814;2023-02-18T10:32:23;10.80;90.20
59505;DHT22;45321;53.200;5.814;2023-02-18T10:41:08;11.00;89.90
59505;DHT22;45321;53.200;5.814;2023-02-18T10:46:51;11.30;88.70
59505;DHT22;45321;53.200;5.814;2023-02-18T10:52:09;11.30;88.30
59505;DHT22;45321;53.200;5.814;2023-02-18T10:57:19;11.50;87.80
59505;DHT22;45321;53.200;5.814;2023-02-18T11:00:25;11.50;87.20
59505;DHT22;45321;53.200;5.814;2023-02-18T11:03:24;11.50;87.20
59505;DHT22;45321;53.200;5.814;2023-02-18T11:05:58;11.60;86.70
59505;DHT22;45321;53.200;5.814;2023-02-18T11:08:26;11.70;86.70
59505;DHT22;45321;53.200;5.814;2023-02-18T11:10:56;11.70;86.20
59505;DHT22;45321;53.200;5.814;2023-02-18T11:13:28;11.80;86.30
59505;DHT22;45321;53.200;5.814;2023-02-18T11:16:03;11.80;86.30
59505;DHT22;45321;53.200;5.814;2023-02-18T11:18:42;11.90;85.70
59505;DHT22;45321;53.200;5.814;2023-02-18T11:21:34;11.90;85.80
59505;DHT22;45321;53.200;5.814;2023-02-18T11:24:15;11.90;85.10
59505;DHT22;45321;53.200;5.814;2023-02-18T11:26:42;12.00;85.00
59505;DHT22;45321;53.200;5.814;2023-02-18T11:29:22;12.10;84.80
59505;DHT22;45321;53.200;5.814;2023-02-18T11:31:51;12.20;84.80
59505;DHT22;45321;53.200;5.814;2023-02-18T11:34:29;12.30;84.10
59505;DHT22;45321;53.200;5.814;2023-02-18T11:37:11;12.30;84.00
59505;DHT22;45321;53.200;5.814;2023-02-18T11:39:42;12.30;83.90
59505;DHT22;45321;53.200;5.814;2023-02-18T11:42:12;12.30;83.90
59505;DHT22;45321;53.200;5.814;2023-02-18T11:44:41;12.40;83.90
59505;DHT22;45321;53.200;5.814;2023-02-18T11:49:38;12.70;83.00
59505;DHT22;45321;53.200;5.814;2023-02-18T11:52:19;12.80;82.60
59505;DHT22;45321;53.200;5.814;2023-02-18T11:57:28;12.80;81.60
59505;DHT22;45321;53.200;5.814;2023-02-18T11:59:54;12.80;81.50
59505;DHT22;45321;53.200;5.814;2023-02-18T12:02:30;12.80;81.50
59505;DHT22;45321;53.200;5.814;2023-02-18T12:05:03;13.00;81.80
59505;DHT22;45321;53.200;5.814;2023-02-18T12:07:41;13.10;81.30
59505;DHT22;45321;53.200;5.814;2023-02-18T12:10:22;13.30;81.00
59505;DHT22;45321;53.200;5.814;2023-02-18T12:13:02;13.40;80.90
59505;DHT22;45321;53.200;5.814;2023-02-18T12:18:26;13.20;80.30
59505;DHT22;45321;53.200;5.814;2023-02-18T12:26:39;12.80;81.00
59505;DHT22;45321;53.200;5.814;2023-02-18T12:32:15;12.60;81.30
59505;DHT22;45321;53.200;5.814;2023-02-18T12:34:52;12.40;81.60
59505;DHT22;45321;53.200;5.814;2023-02-18T12:42:55;12.10;82.50
59505;DHT22;45321;53.200;5.814;2023-02-18T12:45:38;11.90;82.70
59505;DHT22;45321;53.200;5.814;2023-02-18T12:48:40;11.90;82.70
59505;DHT22;45321;53.200;5.814;2023-02-18T12:53:51;11.90;83.00
59505;DHT22;45321;53.200;5.814;2023-02-18T13:01:37;12.00;82.90
59505;DHT22;45321;53.200;5.814;2023-02-18T13:04:24;12.10;82.70
59505;DHT22;45321;53.200;5.814;2023-02-18T13:15:24;12.40;82.00
59505;DHT22;45321;53.200;5.814;2023-02-18T13:17:57;12.40;81.60
59505;DHT22;45321;53.200;5.814;2023-02-18T13:20:34;12.30;81.40
59505;DHT22;45321;53.200;5.814;2023-02-18T13:23:02;12.30;81.50
59505;DHT22;45321;53.200;5.814;2023-02-18T13:25:36;12.30;81.30
59505;DHT22;45321;53.200;5.814;2023-02-18T13:28:15;12.40;81.70
59505;DHT22;45321;53.200;5.814;2023-02-18T13:39:23;12.70;80.90
59505;DHT22;45321;53.200;5.814;2023-02-18T13:41:51;12.80;80.90
59505;DHT22;45321;53.200;5.814;2023-02-18T13:47:43;12.90;79.40
59505;DHT22;45321;53.200;5.814;2023-02-18T13:55:46;13.40;79.20
59505;DHT22;45321;53.200;5.814;2023-02-18T14:01:00;14.10;76.70
59505;DHT22;45321;53.200;5.814;2023-02-18T14:03:31;14.10;75.60
59505;DHT22;45321;53.200;5.814;2023-02-18T14:06:01;14.00;75.90
59505;DHT22;45321;53.200;5.814;2023-02-18T14:08:39;13.80;75.80
59505;DHT22;45321;53.200;5.814;2023-02-18T14:11:32;13.50;76.40
59505;DHT22;45321;53.200;5.814;2023-02-18T14:14:30;13.20;76.90
59505;DHT22;45321;53.200;5.814;2023-02-18T14:24:59;12.80;78.10
59505;DHT22;45321;53.200;5.814;2023-02-18T14:27:27;12.70;78.40
59505;DHT22;45321;53.200;5.814;2023-02-18T14:29:53;12.60;78.60
59505;DHT22;45321;53.200;5.814;2023-02-18T14:32:23;12.60;78.60
59505;DHT22;45321;53.200;5.814;2023-02-18T14:35:12;12.50;78.70
59505;DHT22;45321;53.200;5.814;2023-02-18T14:51:15;12.20;79.60
59505;DHT22;45321;53.200;5.814;2023-02-18T14:53:44;12.10;79.50
59505;DHT22;45321;53.200;5.814;2023-02-18T14:56:13;12.10;79.70
59505;DHT22;45321;53.200;5.814;2023-02-18T14:58:53;12.10;79.80
59505;DHT22;45321;53.200;5.814;2023-02-18T15:01:28;12.00;79.60
59505;DHT22;45321;53.200;5.814;2023-02-18T15:03:55;11.90;79.80
59505;DHT22;45321;53.200;5.814;2023-02-18T15:06:35;11.80;80.00
59505;DHT22;45321;53.200;5.814;2023-02-18T15:09:12;11.80;80.00
59505;DHT22;45321;53.200;5.814;2023-02-18T15:11:42;11.80;80.00
59505;DHT22;45321;53.200;5.814;2023-02-18T15:14:16;11.80;80.10
59505;DHT22;45321;53.200;5.814;2023-02-18T15:16:43;11.80;80.10
59505;DHT22;45321;53.200;5.814;2023-02-18T15:19:21;11.80;80.20
59505;DHT22;45321;53.200;5.814;2023-02-18T15:21:48;11.80;80.20
59505;DHT22;45321;53.200;5.814;2023-02-18T15:24:44;11.80;80.10
59505;DHT22;45321;53.200;5.814;2023-02-18T15:27:17;11.80;80.20
59505;DHT22;45321;53.200;5.814;2023-02-18T15:29:48;11.80;79.60
59505;DHT22;45321;53.200;5.814;2023-02-18T15:32:26;11.80;79.80
59505;DHT22;45321;53.200;5.814;2023-02-18T15:35:00;11.90;79.70
59505;DHT22;45321;53.200;5.814;2023-02-18T15:37:27;11.80;79.60
59505;DHT22;45321;53.200;5.814;2023-02-18T15:39:53;11.80;79.50
59505;DHT22;45321;53.200;5.814;2023-02-18T15:42:26;11.80;79.90
59505;DHT22;45321;53.200;5.814;2023-02-18T15:47:53;11.80;79.80
59505;DHT22;45321;53.200;5.814;2023-02-18T15:50:21;11.80;79.70
59505;DHT22;45321;53.200;5.814;2023-02-18T15:52:48;11.70;79.80
59505;DHT22;45321;53.200;5.814;2023-02-18T15:55:24;11.70;80.10
59505;DHT22;45321;53.200;5.814;2023-02-18T15:57:52;11.70;80.10
59505;DHT22;45321;53.200;5.814;2023-02-18T16:00:28;11.70;80.10
59505;DHT22;45321;53.200;5.814;2023-02-18T16:03:11;11.60;79.90
59505;DHT22;45321;53.200;5.814;2023-02-18T16:05:38;11.60;80.20
59505;DHT22;45321;53.200;5.814;2023-02-18T16:08:16;11.60;79.90
59505;DHT22;45321;53.200;5.814;2023-02-18T16:10:49;11.60;80.00
59505;DHT22;45321;53.200;5.814;2023-02-18T16:13:18;11.50;80.10
59505;DHT22;45321;53.200;5.814;2023-02-18T16:15:46;11.50;80.30
59505;DHT22;45321;53.200;5.814;2023-02-18T16:18:35;11.50;80.30
59505;DHT22;45321;53.200;5.814;2023-02-18T16:21:50;11.40;80.20
59505;DHT22;45321;53.200;5.814;2023-02-18T16:23:52;11.40;80.30
59505;DHT22;45321;53.200;5.814;2023-02-18T16:29:23;11.30;80.40
59505;DHT22;45321;53.200;5.814;2023-02-18T16:31:49;11.30;80.50
59505;DHT22;45321;53.200;5.814;2023-02-18T16:34:15;11.30;80.50
59505;DHT22;45321;53.200;5.814;2023-02-18T16:36:42;11.30;80.60
59505;DHT22;45321;53.200;5.814;2023-02-18T16:39:32;11.20;80.70
59505;DHT22;45321;53.200;5.814;2023-02-18T16:41:58;11.30;80.90
59505;DHT22;45321;53.200;5.814;2023-02-18T16:44:24;11.30;80.70
59505;DHT22;45321;53.200;5.814;2023-02-18T16:46:50;11.30;80.70
59505;DHT22;45321;53.200;5.814;2023-02-18T16:49:16;11.30;80.80
59505;DHT22;45321;53.200;5.814;2023-02-18T16:51:42;11.30;80.90
59505;DHT22;45321;53.200;5.814;2023-02-18T16:54:12;11.30;80.90
59505;DHT22;45321;53.200;5.814;2023-02-18T16:56:38;11.30;81.00
59505;DHT22;45321;53.200;5.814;2023-02-18T16:59:05;11.20;81.00
59505;DHT22;45321;53.200;5.814;2023-02-18T17:01:33;11.20;81.00
59505;DHT22;45321;53.200;5.814;2023-02-18T17:04:02;11.20;81.20
59505;DHT22;45321;53.200;5.814;2023-02-18T17:06:28;11.10;81.10
59505;DHT22;45321;53.200;5.814;2023-02-18T17:08:54;11.20;81.20
59505;DHT22;45321;53.200;5.814;2023-02-18T17:11:23;11.10;81.20
59505;DHT22;45321;53.200;5.814;2023-02-18T17:13:51;11.10;81.30
59505;DHT22;45321;53.200;5.814;2023-02-18T17:16:18;11.10;81.40
59505;DHT22;45321;53.200;5.814;2023-02-18T17:18:44;11.10;81.30
59505;DHT22;45321;53.200;5.814;2023-02-18T17:21:15;11.10;81.40
59505;DHT22;45321;53.200;5.814;2023-02-18T17:23:44;11.00;81.40
59505;DHT22;45321;53.200;5.814;2023-02-18T17:26:20;11.10;81.50
59505;DHT22;45321;53.200;5.814;2023-02-18T17:28:47;11.00;81.50
59505;DHT22;45321;53.200;5.814;2023-02-18T17:31:17;11.00;81.60
59505;DHT22;45321;53.200;5.814;2023-02-18T17:33:44;11.00;81.60
59505;DHT22;45321;53.200;5.814;2023-02-18T17:36:11;11.00;81.70
59505;DHT22;45321;53.200;5.814;2023-02-18T17:38:38;10.90;81.70
59505;DHT22;45321;53.200;5.814;2023-02-18T17:41:05;10.90;81.90
59505;DHT22;45321;53.200;5.814;2023-02-18T17:43:31;10.90;81.90
59505;DHT22;45321;53.200;5.814;2023-02-18T17:45:57;10.90;82.00
59505;DHT22;45321;53.200;5.814;2023-02-18T17:48:24;10.90;82.10
59505;DHT22;45321;53.200;5.814;2023-02-18T17:50:53;10.80;82.20
59505;DHT22;45321;53.200;5.814;2023-02-18T17:53:19;10.80;82.40
59505;DHT22;45321;53.200;5.814;2023-02-18T17:55:46;10.90;82.50
59505;DHT22;45321;53.200;5.814;2023-02-18T17:58:12;10.80;82.70
59505;DHT22;45321;53.200;5.814;2023-02-18T18:00:47;10.80;82.80
59505;DHT22;45321;53.200;5.814;2023-02-18T18:03:14;10.80;82.90
59505;DHT22;45321;53.200;5.814;2023-02-18T18:05:41;10.80;82.90
59505;DHT22;45321;53.200;5.814;2023-02-18T18:08:08;10.80;82.80
59505;DHT22;45321;53.200;5.814;2023-02-18T18:10:48;10.80;82.90
59505;DHT22;45321;53.200;5.814;2023-02-18T18:13:23;10.80;83.00
59505;DHT22;45321;53.200;5.814;2023-02-18T18:15:50;10.80;83.20